Main page
METAR-TAF:

METAR-TAF

Airports :

Albacete Airport

Albacete, Spain

latitude: 38-57N, longitude: 001-51W, elevation: 702 m

Current weather observation

The report was made 18 minutes ago, at 08:00 UTC
Wind 2 kt from variable directions
Temperature 18°C
Humidity 52%
Pressure 1022 hPa
Visibility 10 km or more
no clouds below 1500 m and no cumulonimbus

METAR: LEAB 180800Z VRB02KT CAVOK 18/08 Q1022 NOSIG

Time: 10:18 (08:18 UTC)

Forecast

The report was made 3 hours and 18 minutes ago, at 05:00 UTC
Forecast valid from 18 at 06 UTC to 19 at 06 UTC
Wind 6 kt from the South/Southeast
Visibility 10 km or more
no clouds below 1500 m and no cumulonimbus
Becoming
from 18 at 10 UTC to 18 at 12 UTC
Wind 10 kt from the West
Probability 40% :
Temporary
from 18 at 15 UTC to 18 at 18 UTC
Wind 15 kt from the West with gusts up to 25 kt

TAF: LEAB 180500Z 1806/1906 16006KT CAVOK TX30/1815Z TN13/1905Z BECMG 1810/1812 27010KT PROB40 TEMPO 1815/1818 27015G25KT

Weather observations and forecasts of more than 4000 airports (METAR and TAF reports).

The available stations are represented by yellow and red dots on the map.

Hover mouse over dot to see the name of the station.

Then click to see weather observations and forecasts.

To change the map : click on the green buttons with a black cross to zoom in, on the green button with a dash to zoom out, or on the green arrows for adjacent maps.


METAR-TAF: